createdAt,value
2022-12-19T00:01:37.460Z,20.73
2022-12-19T00:04:07.999Z,19.52
2022-12-19T00:06:36.494Z,19.70
2022-12-19T00:09:03.636Z,18.80
2022-12-19T00:11:31.937Z,17.63
2022-12-19T00:13:59.656Z,17.98
2022-12-19T00:16:29.154Z,20.10
2022-12-19T00:19:01.346Z,18.73
2022-12-19T00:21:30.317Z,20.35
2022-12-19T00:23:56.960Z,20.48
2022-12-19T00:26:23.310Z,18.83
2022-12-19T00:28:53.112Z,20.38
2022-12-19T00:31:20.422Z,20.38
2022-12-19T00:33:48.057Z,18.45
2022-12-19T00:36:22.835Z,17.92
2022-12-19T00:38:51.557Z,19.45
2022-12-19T00:41:19.431Z,17.73
2022-12-19T00:43:46.550Z,19.95
2022-12-19T00:46:15.482Z,19.23
2022-12-19T00:48:42.960Z,19.90
2022-12-19T00:51:17.933Z,18.10
2022-12-19T00:56:16.737Z,18.67
2022-12-19T00:58:46.878Z,18.35
2022-12-19T01:01:37.927Z,19.23
2022-12-19T01:06:57.788Z,17.85
2022-12-19T01:09:31.457Z,19.10
2022-12-19T01:12:16.948Z,19.70
2022-12-19T01:14:43.563Z,20.77
2022-12-19T01:17:10.100Z,17.75
2022-12-19T01:19:41.938Z,20.27
2022-12-19T01:22:10.669Z,18.20
2022-12-19T01:24:40.737Z,18.48
2022-12-19T01:27:07.187Z,19.15
2022-12-19T01:29:33.757Z,19.85
2022-12-19T01:32:03.327Z,18.70
2022-12-19T01:34:30.178Z,19.20
2022-12-19T01:36:56.650Z,21.00
2022-12-19T01:39:26.014Z,20.80
2022-12-19T01:41:55.598Z,20.67
2022-12-19T01:44:24.687Z,18.65
2022-12-19T01:46:54.085Z,18.50
2022-12-19T01:49:28.130Z,17.83
2022-12-19T01:51:58.583Z,20.10
2022-12-19T01:54:34.678Z,19.48
2022-12-19T01:57:02.751Z,18.52
2022-12-19T01:59:34.800Z,18.75
2022-12-19T02:02:11.427Z,19.20
2022-12-19T02:04:43.999Z,19.08
2022-12-19T02:07:16.367Z,20.02
2022-12-19T02:09:46.742Z,18.75
2022-12-19T02:12:13.679Z,19.10
2022-12-19T02:14:41.465Z,18.65
2022-12-19T02:17:14.476Z,18.88
2022-12-19T02:20:11.415Z,18.77
2022-12-19T02:22:46.969Z,21.45
2022-12-19T02:25:22.505Z,17.48
2022-12-19T02:27:58.927Z,19.17
2022-12-19T02:30:40.564Z,19.67
2022-12-19T02:33:17.972Z,19.80
2022-12-19T02:35:51.376Z,19.92
2022-12-19T02:38:37.035Z,19.20
2022-12-19T02:41:06.424Z,20.15
2022-12-19T02:43:38.868Z,21.88
2022-12-19T02:46:06.569Z,20.15
2022-12-19T02:48:33.936Z,21.95
2022-12-19T02:51:00.507Z,19.00
2022-12-19T02:53:26.934Z,20.08
2022-12-19T02:56:19.899Z,21.23
2022-12-19T02:58:49.267Z,18.95
2022-12-19T03:01:29.578Z,20.55
2022-12-19T03:04:11.227Z,20.00
2022-12-19T03:06:52.710Z,20.15
2022-12-19T03:09:45.557Z,20.08
2022-12-19T03:12:21.257Z,19.75
2022-12-19T03:14:49.205Z,20.27
2022-12-19T03:17:19.151Z,19.65
2022-12-19T03:19:46.104Z,19.13
2022-12-19T03:22:12.874Z,19.35
2022-12-19T03:24:39.680Z,20.75
2022-12-19T03:27:36.002Z,21.83
2022-12-19T03:30:10.194Z,18.75
2022-12-19T03:32:39.312Z,21.02
2022-12-19T03:35:09.878Z,20.77
2022-12-19T03:37:38.520Z,18.25
2022-12-19T03:40:12.766Z,20.63
2022-12-19T03:42:59.871Z,20.60
2022-12-19T03:45:40.121Z,21.08
2022-12-19T03:48:46.293Z,19.80
2022-12-19T03:54:33.163Z,21.10
2022-12-19T03:57:21.110Z,21.48
2022-12-19T03:59:56.725Z,18.73
2022-12-19T04:02:24.309Z,18.15
2022-12-19T04:04:55.830Z,19.92
2022-12-19T04:07:23.672Z,21.10
2022-12-19T04:09:51.563Z,20.25
2022-12-19T04:12:21.353Z,21.20
2022-12-19T04:14:49.491Z,19.85
2022-12-19T04:17:34.600Z,18.98
2022-12-19T04:20:12.074Z,19.58
2022-12-19T04:22:51.202Z,18.95
2022-12-19T04:25:29.222Z,19.90
2022-12-19T04:28:02.491Z,18.83
2022-12-19T04:30:29.399Z,19.38
2022-12-19T04:32:56.710Z,19.25
2022-12-19T04:35:23.211Z,19.27
2022-12-19T04:37:49.673Z,18.88
2022-12-19T04:40:16.229Z,21.17
2022-12-19T04:42:42.650Z,18.55
2022-12-19T04:45:09.416Z,19.35
2022-12-19T04:47:36.018Z,18.98
2022-12-19T04:50:02.389Z,19.83
2022-12-19T04:52:28.812Z,18.23
2022-12-19T04:54:55.236Z,19.60
2022-12-19T04:57:21.863Z,17.48
2022-12-19T04:59:48.247Z,20.40
2022-12-19T05:02:14.843Z,19.10
2022-12-19T05:04:41.296Z,19.63
2022-12-19T05:07:07.731Z,18.67
2022-12-19T05:09:34.148Z,19.75
2022-12-19T05:12:00.593Z,19.80
2022-12-19T05:14:27.753Z,19.58
2022-12-19T05:17:00.443Z,22.27
2022-12-19T05:19:28.288Z,19.38
2022-12-19T05:21:54.701Z,20.27
2022-12-19T05:24:21.124Z,20.88
2022-12-19T05:26:49.105Z,20.08
2022-12-19T05:29:16.183Z,19.08
2022-12-19T05:31:43.245Z,19.95
2022-12-19T05:34:09.848Z,20.63
2022-12-19T05:36:36.298Z,19.33
2022-12-19T05:39:02.824Z,18.73
2022-12-19T05:41:29.304Z,18.88
2022-12-19T05:43:56.491Z,17.88
2022-12-19T05:46:24.004Z,21.42
2022-12-19T05:48:51.315Z,20.58
2022-12-19T05:51:17.779Z,19.63
2022-12-19T05:53:44.706Z,19.33
2022-12-19T05:56:21.561Z,20.00
2022-12-19T05:58:48.729Z,20.23
2022-12-19T06:01:24.542Z,19.02
2022-12-19T06:03:52.029Z,18.10
2022-12-19T06:06:24.430Z,20.08
2022-12-19T06:08:55.652Z,18.65
2022-12-19T06:11:22.836Z,19.33
2022-12-19T06:13:49.543Z,17.55
2022-12-19T06:16:19.073Z,21.85
2022-12-19T06:18:46.219Z,19.65
2022-12-19T06:21:31.049Z,20.60
2022-12-19T06:23:57.492Z,17.17
2022-12-19T06:26:24.122Z,18.48
2022-12-19T06:28:52.045Z,21.02
2022-12-19T06:31:20.904Z,20.48
2022-12-19T06:33:47.553Z,20.20
2022-12-19T06:36:23.379Z,19.85
2022-12-19T06:38:50.901Z,20.13
2022-12-19T06:41:37.033Z,21.75
2022-12-19T06:44:06.064Z,20.25
2022-12-19T06:46:33.059Z,20.38
2022-12-19T06:48:59.638Z,20.98
2022-12-19T06:51:26.309Z,21.58
2022-12-19T06:53:52.747Z,20.80
2022-12-19T06:56:20.167Z,20.63
2022-12-19T06:58:47.843Z,20.55
2022-12-19T07:01:29.057Z,20.27
2022-12-19T07:03:55.670Z,19.80
2022-12-19T07:06:22.846Z,20.60
2022-12-19T07:08:49.299Z,19.90
2022-12-19T07:11:15.747Z,19.65
2022-12-19T07:13:42.113Z,18.73
2022-12-19T07:16:09.172Z,20.15
2022-12-19T07:18:39.692Z,20.13
2022-12-19T07:21:07.549Z,19.10
2022-12-19T07:23:35.161Z,21.13
2022-12-19T07:26:01.678Z,19.13
2022-12-19T07:28:28.337Z,20.60
2022-12-19T07:30:54.752Z,19.70
2022-12-19T07:33:21.970Z,21.38
2022-12-19T07:35:48.691Z,19.77
2022-12-19T07:38:15.230Z,18.25
2022-12-19T07:40:41.759Z,20.13
2022-12-19T07:43:08.210Z,18.45
2022-12-19T07:45:37.833Z,21.50
2022-12-19T07:48:06.176Z,20.08
2022-12-19T07:50:32.980Z,19.90
2022-12-19T07:53:00.145Z,19.65
2022-12-19T07:55:27.039Z,19.88
2022-12-19T07:57:55.142Z,19.27
2022-12-19T08:00:22.157Z,20.75
2022-12-19T08:02:48.639Z,19.77
2022-12-19T08:05:15.833Z,20.02
2022-12-19T08:07:42.212Z,20.55
2022-12-19T08:10:11.283Z,20.55
2022-12-19T08:12:38.129Z,21.52
2022-12-19T08:15:05.768Z,20.90
2022-12-19T08:17:32.245Z,21.80
2022-12-19T08:19:58.685Z,21.10
2022-12-19T08:22:25.104Z,19.67
2022-12-19T08:24:51.581Z,22.38
2022-12-19T08:27:18.668Z,20.27
2022-12-19T08:29:45.122Z,20.92
2022-12-19T08:32:15.620Z,19.85
2022-12-19T08:34:45.190Z,19.08
2022-12-19T08:37:11.558Z,22.73
2022-12-19T08:39:37.915Z,20.48
2022-12-19T08:42:04.464Z,20.48
2022-12-19T08:44:30.934Z,20.60
2022-12-19T08:46:57.324Z,20.35
2022-12-19T08:49:23.732Z,20.98
2022-12-19T08:51:50.162Z,19.77
2022-12-19T08:54:16.637Z,21.17
2022-12-19T08:56:46.361Z,20.33
2022-12-19T08:59:21.444Z,19.05
2022-12-19T09:01:58.323Z,19.35
2022-12-19T09:05:57.792Z,20.05
2022-12-19T09:07:11.247Z,18.60
2022-12-19T09:09:41.771Z,19.23
2022-12-19T09:12:08.180Z,19.23
2022-12-19T09:14:35.651Z,20.40
2022-12-19T09:17:02.617Z,22.13
2022-12-19T09:19:31.331Z,22.88
2022-12-19T09:21:57.773Z,21.55
2022-12-19T09:24:24.229Z,20.00
2022-12-19T09:26:50.630Z,20.70
2022-12-19T09:29:20.410Z,21.55
2022-12-19T09:31:50.024Z,20.27
2022-12-19T09:34:22.667Z,19.10
2022-12-19T09:36:50.558Z,20.55
2022-12-19T09:39:18.117Z,21.20
2022-12-19T09:42:03.454Z,19.48
2022-12-19T09:44:49.121Z,20.38
2022-12-19T09:47:23.953Z,18.92
2022-12-19T09:49:52.236Z,21.13
2022-12-19T09:52:25.800Z,21.00
2022-12-19T09:57:43.676Z,19.30
2022-12-19T10:00:13.710Z,20.48
2022-12-19T10:02:58.556Z,20.67
2022-12-19T10:05:57.708Z,20.63
2022-12-19T10:08:27.824Z,21.25
2022-12-19T10:12:43.487Z,23.45
2022-12-19T10:14:12.455Z,23.05
2022-12-19T10:17:22.108Z,19.13
2022-12-19T10:19:52.631Z,19.80
2022-12-19T10:22:37.912Z,20.25
2022-12-19T10:25:36.192Z,18.63
2022-12-19T10:28:11.863Z,18.80
2022-12-19T10:30:45.134Z,18.42
2022-12-19T10:33:39.820Z,19.10
2022-12-19T10:36:10.476Z,18.77
2022-12-19T10:38:51.109Z,18.77
2022-12-19T10:41:24.767Z,18.13
2022-12-19T10:44:05.747Z,18.40
2022-12-19T10:46:40.180Z,18.77
2022-12-19T10:49:24.737Z,19.67
2022-12-19T10:52:10.341Z,18.70
2022-12-19T10:54:37.911Z,19.13
2022-12-19T10:57:22.500Z,18.67
2022-12-19T10:59:59.327Z,20.23
2022-12-19T11:02:37.782Z,19.83
2022-12-19T11:05:20.735Z,18.80
2022-12-19T11:08:07.073Z,18.75
2022-12-19T11:11:55.184Z,18.45
2022-12-19T11:19:22.438Z,17.88
2022-12-19T11:21:40.786Z,18.55
2022-12-19T11:29:27.342Z,18.48
2022-12-19T11:29:32.004Z,20.58
2022-12-19T11:30:06.373Z,18.45
2022-12-19T11:30:41.128Z,19.67
2022-12-19T11:34:05.972Z,22.00
2022-12-19T11:37:04.892Z,21.83
2022-12-19T11:39:45.355Z,20.63
2022-12-19T11:42:25.541Z,20.90
2022-12-19T11:45:10.681Z,19.75
2022-12-19T11:47:45.563Z,21.83
2022-12-19T11:50:22.154Z,19.08
2022-12-19T11:53:22.581Z,19.02
2022-12-19T11:56:15.775Z,20.00
2022-12-19T11:58:49.491Z,20.65
2022-12-19T12:01:51.188Z,20.17
2022-12-19T12:04:54.821Z,20.95
2022-12-19T12:08:22.129Z,20.58
2022-12-19T12:13:18.233Z,20.05
2022-12-19T12:24:18.205Z,19.90
2022-12-19T12:29:15.779Z,19.92
2022-12-19T12:31:13.060Z,19.35
2022-12-19T12:31:14.693Z,18.50
2022-12-19T12:31:52.581Z,17.13
2022-12-19T12:32:01.907Z,16.65
2022-12-19T12:35:29.214Z,18.05
2022-12-19T12:39:01.951Z,18.60
2022-12-19T12:41:53.057Z,18.63
2022-12-19T12:44:30.692Z,16.60
2022-12-19T12:47:06.619Z,17.58
2022-12-19T12:50:36.302Z,18.65
2022-12-19T12:53:07.292Z,17.60
2022-12-19T12:55:40.095Z,16.92
2022-12-19T12:58:44.869Z,16.38
2022-12-19T13:01:29.707Z,16.80
2022-12-19T13:03:58.902Z,18.25
2022-12-19T13:06:37.722Z,16.75
2022-12-19T13:09:42.914Z,17.48
2022-12-19T13:12:45.376Z,17.00
2022-12-19T13:15:34.284Z,16.15
2022-12-19T13:18:09.203Z,16.75
2022-12-19T13:20:47.443Z,17.95
2022-12-19T13:23:33.990Z,18.75
2022-12-19T13:26:00.530Z,18.45
2022-12-19T13:28:36.029Z,16.80
2022-12-19T13:31:18.885Z,16.88
2022-12-19T13:33:57.065Z,16.55
2022-12-19T13:39:51.026Z,19.23
2022-12-19T13:40:10.832Z,21.05
2022-12-19T13:43:11.464Z,19.63
2022-12-19T13:45:40.658Z,17.55
2022-12-19T13:48:15.187Z,18.75
2022-12-19T13:50:42.808Z,18.85
2022-12-19T13:53:17.757Z,17.70
2022-12-19T13:55:44.738Z,17.73
2022-12-19T13:58:28.987Z,17.63
2022-12-19T14:01:01.115Z,17.35
2022-12-19T14:03:39.053Z,17.25
2022-12-19T14:06:17.831Z,14.40
2022-12-19T14:08:47.639Z,15.98
2022-12-19T14:13:41.549Z,15.63
2022-12-19T14:15:13.055Z,16.38
2022-12-19T14:17:42.999Z,15.63
2022-12-19T14:22:02.139Z,15.85
2022-12-19T14:23:14.577Z,16.25
2022-12-19T14:28:19.656Z,15.82
2022-12-19T14:28:55.106Z,17.17
2022-12-19T14:31:23.383Z,17.30
2022-12-19T14:34:19.051Z,24.95
2022-12-19T14:36:40.786Z,21.92
2022-12-19T14:39:23.727Z,19.02
2022-12-19T14:42:31.558Z,18.85
2022-12-19T14:52:25.092Z,21.05
2022-12-19T14:54:10.031Z,21.50
2022-12-19T14:54:31.031Z,19.88
2022-12-19T14:57:25.626Z,18.75
2022-12-19T15:01:07.745Z,15.45
2022-12-19T15:03:18.302Z,16.02
2022-12-19T15:05:45.138Z,16.47
2022-12-19T15:08:12.091Z,15.20
2022-12-19T15:11:00.907Z,16.08
2022-12-19T15:14:47.629Z,17.48
2022-12-19T15:16:30.252Z,15.55
2022-12-19T15:18:59.093Z,18.13
2022-12-19T15:21:26.499Z,17.42
2022-12-19T15:23:52.982Z,15.98
2022-12-19T15:26:28.406Z,15.27
2022-12-19T15:28:57.150Z,14.90
2022-12-19T15:31:32.891Z,14.20
2022-12-19T15:34:33.096Z,15.35
2022-12-19T15:36:45.885Z,16.23
2022-12-19T15:39:12.287Z,18.83
2022-12-19T15:41:38.702Z,17.00
2022-12-19T15:44:10.064Z,16.83
2022-12-19T15:46:38.845Z,17.75
2022-12-19T15:49:27.542Z,18.50
2022-12-19T15:51:53.977Z,17.90
2022-12-19T15:57:30.006Z,15.93
2022-12-19T16:00:00.220Z,17.40
2022-12-19T16:02:42.728Z,15.10
2022-12-19T16:05:14.984Z,16.95
2022-12-19T16:07:41.650Z,15.75
2022-12-19T16:10:10.928Z,14.85
2022-12-19T16:12:43.344Z,15.65
2022-12-19T16:15:26.072Z,16.73
2022-12-19T16:17:53.186Z,17.25
2022-12-19T16:20:39.819Z,17.52
2022-12-19T16:23:07.927Z,16.83
2022-12-19T16:25:43.271Z,18.17
2022-12-19T16:28:26.424Z,17.92
2022-12-19T16:30:53.176Z,16.55
2022-12-19T16:33:26.140Z,15.93
2022-12-19T16:36:04.011Z,16.42
2022-12-19T16:38:31.431Z,19.95
2022-12-19T16:40:57.830Z,18.63
2022-12-19T16:43:35.608Z,22.52
2022-12-19T16:46:05.586Z,25.85
2022-12-19T16:48:33.986Z,20.73
2022-12-19T16:51:00.491Z,26.23
2022-12-19T16:53:27.312Z,21.98
2022-12-19T16:55:55.576Z,20.02
2022-12-19T16:58:27.376Z,22.40
2022-12-19T17:00:55.311Z,18.48
2022-12-19T17:03:37.331Z,17.08
2022-12-19T17:06:04.357Z,16.83
2022-12-19T17:08:32.312Z,17.05
2022-12-19T17:10:58.801Z,17.83
2022-12-19T17:13:25.532Z,18.17
2022-12-19T17:15:56.774Z,18.77
2022-12-19T17:18:38.271Z,18.90
2022-12-19T17:21:04.743Z,21.27
2022-12-19T17:23:32.522Z,16.45
2022-12-19T17:26:00.306Z,16.67
2022-12-19T17:28:28.170Z,16.08
2022-12-19T17:30:59.888Z,17.40
2022-12-19T17:33:33.280Z,23.33
2022-12-19T17:36:01.528Z,24.48
2022-12-19T17:38:28.128Z,20.27
2022-12-19T17:40:54.676Z,18.25
2022-12-19T17:43:21.061Z,19.55
2022-12-19T17:45:47.838Z,18.65
2022-12-19T17:48:34.519Z,16.83
2022-12-19T17:51:01.000Z,17.38
2022-12-19T17:53:27.511Z,13.77
2022-12-19T17:55:53.913Z,18.88
2022-12-19T17:58:21.578Z,14.75
2022-12-19T18:00:49.719Z,14.90
2022-12-19T18:03:24.831Z,14.23
2022-12-19T18:05:54.152Z,13.82
2022-12-19T18:08:30.558Z,13.48
2022-12-19T18:10:59.733Z,12.55
2022-12-19T18:13:27.865Z,15.15
2022-12-19T18:16:00.046Z,14.35
2022-12-19T18:18:45.745Z,15.10
2022-12-19T18:21:19.302Z,12.52
2022-12-19T18:23:46.324Z,13.43
2022-12-19T18:26:12.920Z,12.65
2022-12-19T18:28:40.325Z,11.93
2022-12-19T18:31:14.807Z,15.32
2022-12-19T18:33:43.436Z,11.85
2022-12-19T18:36:17.737Z,11.45
2022-12-19T18:38:44.425Z,14.38
2022-12-19T18:41:12.284Z,11.52
2022-12-19T18:43:38.732Z,11.77
2022-12-19T18:46:05.741Z,11.10
2022-12-19T18:48:36.800Z,9.27
2022-12-19T18:51:04.750Z,10.10
2022-12-19T18:53:35.269Z,10.05
2022-12-19T18:56:04.183Z,11.52
2022-12-19T18:58:30.981Z,9.85
2022-12-19T19:00:59.872Z,10.25
2022-12-19T19:03:29.737Z,9.98
2022-12-19T19:05:56.690Z,11.02
2022-12-19T19:08:26.430Z,9.85
2022-12-19T19:10:54.694Z,10.68
2022-12-19T19:13:22.869Z,12.00
2022-12-19T19:16:05.424Z,23.98
2022-12-19T19:18:36.477Z,12.63
2022-12-19T19:21:03.799Z,10.68
2022-12-19T19:23:37.908Z,10.68
2022-12-19T19:26:05.038Z,10.75
2022-12-19T19:28:31.477Z,10.25
2022-12-19T19:31:00.064Z,11.30
2022-12-19T19:33:40.813Z,10.45
2022-12-19T19:36:13.360Z,8.25
2022-12-19T19:38:46.185Z,9.80
2022-12-19T19:41:12.772Z,9.18
2022-12-19T19:43:39.519Z,9.35
2022-12-19T19:46:06.056Z,9.38
2022-12-19T19:48:33.180Z,9.88
2022-12-19T19:50:59.656Z,10.00
2022-12-19T19:53:26.176Z,9.95
2022-12-19T19:56:01.312Z,10.43
2022-12-19T20:00:54.935Z,9.45
2022-12-19T20:03:23.327Z,9.13
2022-12-19T20:05:50.411Z,8.65
2022-12-19T20:08:17.252Z,9.48
2022-12-19T20:10:43.713Z,8.90
2022-12-19T20:13:10.998Z,10.52
2022-12-19T20:15:37.498Z,9.02
2022-12-19T20:18:03.991Z,9.02
2022-12-19T20:20:32.607Z,8.20
2022-12-19T20:22:59.113Z,10.50
2022-12-19T20:25:25.457Z,8.10
2022-12-19T20:27:51.838Z,8.27
2022-12-19T20:30:18.569Z,7.78
2022-12-19T20:32:45.109Z,8.35
2022-12-19T20:35:14.783Z,7.18
2022-12-19T20:37:41.987Z,7.18
2022-12-19T20:40:09.283Z,7.30
2022-12-19T20:42:35.834Z,7.55
2022-12-19T20:45:02.349Z,7.45
2022-12-19T20:47:28.845Z,6.80
2022-12-19T20:49:55.356Z,7.15
2022-12-19T20:52:22.049Z,6.88
2022-12-19T20:54:48.526Z,7.90
2022-12-19T20:57:14.964Z,6.88
2022-12-19T20:59:41.342Z,5.93
2022-12-19T21:02:07.905Z,6.45
2022-12-19T21:04:34.791Z,7.07
2022-12-19T21:07:01.438Z,6.72
2022-12-19T21:09:28.017Z,6.78
2022-12-19T21:11:54.594Z,6.28
2022-12-19T21:14:21.121Z,6.80
2022-12-19T21:16:52.188Z,5.80
2022-12-19T21:19:19.214Z,6.85
2022-12-19T21:21:45.735Z,7.05
2022-12-19T21:24:12.878Z,5.82
2022-12-19T21:26:39.457Z,6.30
2022-12-19T21:29:06.048Z,6.55
2022-12-19T21:31:32.631Z,5.80
2022-12-19T21:34:01.552Z,6.25
2022-12-19T21:36:30.103Z,8.05
2022-12-19T21:38:58.372Z,7.53
2022-12-19T21:41:24.864Z,6.32
2022-12-19T21:43:53.876Z,6.40
2022-12-19T21:46:23.571Z,6.60
2022-12-19T21:48:52.205Z,6.85
2022-12-19T21:51:21.675Z,5.53
2022-12-19T21:53:48.498Z,6.07
2022-12-19T21:56:30.297Z,6.07
2022-12-19T21:58:59.455Z,6.28
2022-12-19T22:01:26.911Z,6.22
2022-12-19T22:04:01.141Z,5.60
2022-12-19T22:06:31.668Z,6.37
2022-12-19T22:08:59.491Z,5.97
2022-12-19T22:11:27.448Z,5.15
2022-12-19T22:13:54.354Z,5.70
2022-12-19T22:16:20.854Z,5.30
2022-12-19T22:18:47.528Z,5.85
2022-12-19T22:21:15.113Z,5.75
2022-12-19T22:23:42.326Z,4.80
2022-12-19T22:26:18.198Z,4.72
2022-12-19T22:28:47.525Z,5.35
2022-12-19T22:31:20.130Z,5.07
2022-12-19T22:33:48.572Z,4.80
2022-12-19T22:36:17.514Z,4.90
2022-12-19T22:38:48.758Z,5.07
2022-12-19T22:41:17.115Z,5.35
2022-12-19T22:43:43.900Z,5.43
2022-12-19T22:46:14.825Z,4.63
2022-12-19T22:48:42.399Z,5.00
2022-12-19T22:51:09.818Z,5.10
2022-12-19T22:53:37.742Z,5.05
2022-12-19T22:56:07.905Z,5.57
2022-12-19T22:58:35.585Z,5.00
2022-12-19T23:01:12.033Z,4.65
2022-12-19T23:03:38.560Z,4.75
2022-12-19T23:06:05.090Z,5.40
2022-12-19T23:08:31.618Z,4.93
2022-12-19T23:10:58.372Z,5.03
2022-12-19T23:13:25.222Z,5.07
2022-12-19T23:15:52.074Z,4.50
2022-12-19T23:18:18.648Z,5.30
2022-12-19T23:20:45.145Z,5.13
2022-12-19T23:23:11.571Z,4.60
2022-12-19T23:25:41.937Z,4.72
2022-12-19T23:28:09.550Z,4.28
2022-12-19T23:30:36.871Z,4.55
2022-12-19T23:33:04.160Z,4.68
2022-12-19T23:35:33.062Z,5.05
2022-12-19T23:37:59.489Z,4.25
2022-12-19T23:40:25.904Z,3.88
2022-12-19T23:42:52.506Z,4.55
2022-12-19T23:45:18.957Z,4.57
2022-12-19T23:47:46.651Z,5.18
2022-12-19T23:50:13.027Z,5.72
2022-12-19T23:52:39.510Z,5.25
2022-12-19T23:55:06.531Z,6.00
2022-12-19T23:57:32.932Z,7.88
2022-12-19T23:59:59.549Z,8.00
